Time;durP1;ratioP1;P1;durP2;ratioP2;P2;SDS_P1;SDS_P2;PMS_P1;PMS_P2;Temp;Humidity;BMP_temperature;BMP_pressure;BME280_temperature;BME280_humidity;BME280_pressure;Samples;Min_cycle;Max_cycle;Signal;HPM_P1;HPM_P2
2022/05/18 00:02:07;;;;;;;13.18;9.07;;;;;;;14.62;100.00;96887.13;5066989;28;20060;-47
2022/05/18 00:04:35;;;;;;;11.93;9.25;;;;;;;14.61;100.00;96882.81;5066548;28;20075;-49
2022/05/18 00:07:04;;;;;;;14.50;9.38;;;;;;;14.75;100.00;96878.72;5065627;28;20088;-49
2022/05/18 00:09:32;;;;;;;12.18;9.32;;;;;;;14.76;100.00;96875.06;5065083;28;20088;-45
2022/05/18 00:12:03;;;;;;;10.27;8.32;;;;;;;14.72;100.00;96875.38;5065643;28;20206;-44
2022/05/18 00:14:31;;;;;;;11.10;8.65;;;;;;;14.67;100.00;96875.03;5066123;28;20075;-48
2022/05/18 00:17:03;;;;;;;15.48;9.43;;;;;;;14.64;100.00;96879.84;5065991;28;20068;-49
2022/05/18 00:19:32;;;;;;;14.07;9.43;;;;;;;14.51;100.00;96869.66;5065949;28;20089;-44
2022/05/18 00:22:00;;;;;;;10.88;8.75;;;;;;;14.53;100.00;96877.47;5066021;28;20561;-49
2022/05/18 00:24:28;;;;;;;15.00;9.60;;;;;;;14.41;100.00;96879.53;5066278;28;20087;-47
2022/05/18 00:26:56;;;;;;;11.63;9.35;;;;;;;14.44;100.00;96874.72;5065363;28;20052;-48
2022/05/18 00:29:26;;;;;;;12.02;9.60;;;;;;;14.49;100.00;96876.94;5066168;28;20060;-48
2022/05/18 00:31:54;;;;;;;10.53;8.93;;;;;;;14.45;100.00;96876.41;5065657;28;20072;-48
2022/05/18 00:34:23;;;;;;;12.35;9.43;;;;;;;14.14;100.00;96877.88;5065107;28;20087;-51
2022/05/18 00:36:51;;;;;;;12.18;9.50;;;;;;;14.08;100.00;96886.47;5065190;28;20076;-51
2022/05/18 00:39:20;;;;;;;12.93;9.40;;;;;;;14.38;100.00;96878.03;5066598;28;20080;-47
2022/05/18 00:41:48;;;;;;;13.38;9.55;;;;;;;14.31;100.00;96886.75;5064514;28;20068;-46
2022/05/18 00:44:17;;;;;;;15.68;10.45;;;;;;;14.22;100.00;96889.38;5066767;28;20075;-45
2022/05/18 00:46:46;;;;;;;13.98;9.18;;;;;;;14.35;100.00;96888.97;5066139;28;20478;-46
2022/05/18 00:49:14;;;;;;;10.48;9.32;;;;;;;14.36;100.00;96885.31;5065177;28;20075;-49
2022/05/18 00:51:45;;;;;;;12.85;9.45;;;;;;;14.40;100.00;96891.13;5059531;28;20088;-50
2022/05/18 00:54:16;;;;;;;12.77;8.88;;;;;;;14.38;100.00;96885.13;5065579;28;20107;-44
2022/05/18 00:56:49;;;;;;;15.57;8.63;;;;;;;14.15;100.00;96884.88;5063389;28;20068;-45
2022/05/18 00:59:19;;;;;;;11.10;8.52;;;;;;;14.08;100.00;96894.44;5054599;28;20451;-45
2022/05/18 01:01:49;;;;;;;13.52;8.93;;;;;;;14.17;100.00;96891.66;5066370;28;20163;-47
2022/05/18 01:04:18;;;;;;;10.73;8.40;;;;;;;14.14;100.00;96885.81;5065647;28;20547;-48
2022/05/18 01:06:48;;;;;;;11.95;8.88;;;;;;;14.02;100.00;96888.75;5064678;28;20080;-46
2022/05/18 01:09:20;;;;;;;10.35;8.52;;;;;;;14.05;100.00;96886.78;5066021;28;20068;-52
2022/05/18 01:11:48;;;;;;;13.07;9.45;;;;;;;13.86;100.00;96888.63;5060993;28;20074;-48
2022/05/18 01:14:19;;;;;;;16.90;11.18;;;;;;;13.95;100.00;96895.66;5064635;28;20075;-44
2022/05/18 01:16:48;;;;;;;12.68;9.15;;;;;;;13.92;100.00;96889.84;5068452;28;20064;-47
2022/05/18 01:19:21;;;;;;;13.60;9.27;;;;;;;13.79;100.00;96895.53;5064920;28;20243;-50
2022/05/18 01:21:55;;;;;;;11.95;9.23;;;;;;;13.86;100.00;96895.75;5068636;28;20111;-45
2022/05/18 01:24:29;;;;;;;10.63;9.10;;;;;;;13.91;100.00;96896.13;5066450;28;20503;-52
2022/05/18 01:27:00;;;;;;;10.73;9.30;;;;;;;13.84;100.00;96903.88;5070212;28;20801;-49
2022/05/18 01:29:29;;;;;;;12.18;9.35;;;;;;;13.62;100.00;96899.03;5068600;28;20561;-51
2022/05/18 01:32:00;;;;;;;11.88;9.55;;;;;;;13.62;100.00;96904.34;5064840;28;20072;-46
2022/05/18 01:34:31;;;;;;;10.93;9.18;;;;;;;13.56;100.00;96902.28;5068785;28;20550;-45
2022/05/18 01:37:00;;;;;;;12.35;8.93;;;;;;;13.63;100.00;96912.16;5067425;28;20450;-43
2022/05/18 01:39:31;;;;;;;10.65;8.95;;;;;;;13.68;100.00;96909.88;5068964;28;20519;-52
2022/05/18 01:42:08;;;;;;;13.50;9.60;;;;;;;13.73;100.00;96912.91;5062014;28;20064;-47
2022/05/18 01:44:38;;;;;;;10.73;8.43;;;;;;;13.74;100.00;96914.56;5067049;28;20060;-43
2022/05/18 01:47:07;;;;;;;14.98;9.05;;;;;;;13.76;100.00;96914.41;5066226;28;20083;-49
2022/05/18 01:49:38;;;;;;;10.45;8.18;;;;;;;13.73;100.00;96906.78;5067182;28;20056;-44
2022/05/18 01:52:07;;;;;;;10.43;8.60;;;;;;;13.56;100.00;96913.75;5065009;28;20561;-43
2022/05/18 01:54:39;;;;;;;12.25;7.97;;;;;;;13.65;100.00;96912.81;5069165;28;20486;-46
2022/05/18 01:57:09;;;;;;;10.20;8.50;;;;;;;13.46;100.00;96907.69;5068108;28;20068;-47
2022/05/18 01:59:38;;;;;;;15.52;9.43;;;;;;;13.33;100.00;96917.81;5059761;28;20141;-49
2022/05/18 02:02:12;;;;;;;10.75;9.00;;;;;;;13.37;100.00;96912.06;5067664;28;20155;-44
2022/05/18 02:04:42;;;;;;;11.70;8.57;;;;;;;13.30;100.00;96917.13;5066884;28;20068;-45
2022/05/18 02:07:11;;;;;;;9.13;7.93;;;;;;;13.16;100.00;96916.78;5067169;28;20060;-46
2022/05/18 02:09:39;;;;;;;11.77;8.18;;;;;;;13.17;100.00;96919.28;5068589;28;20072;-46
2022/05/18 02:12:10;;;;;;;13.20;8.23;;;;;;;13.16;100.00;96922.09;5068250;28;20064;-50
2022/05/18 02:14:39;;;;;;;9.73;8.40;;;;;;;13.30;100.00;96921.59;5068097;28;20036;-44
2022/05/18 02:17:07;;;;;;;10.95;8.55;;;;;;;13.42;100.00;96920.41;5067771;28;20043;-45
2022/05/18 02:19:35;;;;;;;10.05;7.68;;;;;;;13.41;100.00;96926.66;5065780;28;20068;-46
2022/05/18 02:22:04;;;;;;;12.02;8.25;;;;;;;13.26;100.00;96922.88;5066945;28;20084;-45
2022/05/18 02:24:32;;;;;;;10.07;8.02;;;;;;;13.41;100.00;96933.78;5071885;28;20090;-48
2022/05/18 02:27:01;;;;;;;14.02;8.52;;;;;;;13.30;100.00;96937.50;5066543;28;20072;-45
2022/05/18 02:29:30;;;;;;;9.70;8.63;;;;;;;13.16;100.00;96941.44;5065682;28;20063;-46
2022/05/18 02:31:59;;;;;;;10.73;8.02;;;;;;;13.26;100.00;96936.13;5068352;28;20466;-44
2022/05/18 02:34:27;;;;;;;9.95;8.10;;;;;;;13.29;100.00;96933.19;5064608;28;20525;-44
2022/05/18 02:36:55;;;;;;;10.27;8.32;;;;;;;13.25;100.00;96931.81;5060817;28;20084;-44
2022/05/18 02:39:24;;;;;;;10.80;8.68;;;;;;;13.31;100.00;96931.19;5061345;28;20952;-52
2022/05/18 02:41:52;;;;;;;11.38;8.82;;;;;;;13.25;100.00;96934.47;5063457;28;20637;-47
2022/05/18 02:44:20;;;;;;;12.63;9.00;;;;;;;13.26;100.00;96936.13;5058424;28;20064;-46
2022/05/18 02:46:50;;;;;;;11.60;8.82;;;;;;;13.23;100.00;96942.53;5063176;28;20072;-49
2022/05/18 02:49:18;;;;;;;10.13;8.53;;;;;;;13.19;100.00;96943.81;5061423;28;20064;-51
2022/05/18 02:51:47;;;;;;;11.43;9.27;;;;;;;13.09;100.00;96936.91;5062224;28;20106;-44
2022/05/18 02:57:15;;;;;;;9.95;8.68;;;;;;;12.99;100.00;96947.53;4980437;28;20074;-46
2022/05/18 02:59:44;;;;;;;12.75;9.43;;;;;;;13.14;100.00;96942.56;4981140;28;20074;-47
2022/05/18 03:02:13;;;;;;;13.25;8.82;;;;;;;12.92;100.00;96947.31;5017193;28;20568;-49
2022/05/18 03:04:42;;;;;;;10.45;8.68;;;;;;;13.01;100.00;96937.66;5062400;28;20068;-44
2022/05/18 03:07:10;;;;;;;11.90;9.38;;;;;;;12.98;100.00;96946.72;5060773;28;20072;-47
2022/05/18 03:09:39;;;;;;;14.13;9.50;;;;;;;13.17;100.00;96936.97;5059759;28;20079;-44
2022/05/18 03:12:08;;;;;;;12.60;9.65;;;;;;;13.20;100.00;96939.34;5062075;28;20060;-44
2022/05/18 03:14:36;;;;;;;11.27;9.30;;;;;;;13.11;100.00;96938.44;5062719;28;20072;-45
2022/05/18 03:17:05;;;;;;;13.80;9.25;;;;;;;13.16;100.00;96943.28;5062396;28;20478;-47
2022/05/18 03:19:34;;;;;;;12.35;8.85;;;;;;;13.11;100.00;96937.56;5063740;28;20436;-44
2022/05/18 03:24:49;;;;;;;9.43;8.18;;;;;;;13.14;100.00;96943.41;5065651;28;20118;-46
2022/05/18 03:27:17;;;;;;;9.13;7.45;;;;;;;13.02;100.00;96948.09;5064018;28;20072;-46
2022/05/18 03:29:45;;;;;;;7.53;6.72;;;;;;;13.17;100.00;96948.41;5064218;28;20311;-44
2022/05/18 03:32:15;;;;;;;7.80;7.00;;;;;;;12.97;100.00;96958.31;5057422;28;20064;-46
2022/05/18 03:34:44;;;;;;;8.10;7.30;;;;;;;13.14;100.00;96964.59;5063947;28;20078;-50
2022/05/18 03:37:13;;;;;;;14.20;8.07;;;;;;;13.20;100.00;96968.47;5063660;28;20075;-46
2022/05/18 03:39:41;;;;;;;10.25;8.30;;;;;;;13.05;100.00;96971.63;5065112;28;20513;-50
2022/05/18 03:42:10;;;;;;;9.73;7.60;;;;;;;13.09;100.00;96963.38;5063823;28;20067;-44
2022/05/18 03:44:38;;;;;;;10.88;7.80;;;;;;;13.28;100.00;96969.44;5062755;28;20064;-44
2022/05/18 03:47:07;;;;;;;9.63;7.82;;;;;;;13.44;100.00;96973.22;5064492;28;20118;-53
2022/05/18 03:49:35;;;;;;;11.35;8.65;;;;;;;13.51;100.00;96977.78;5048370;28;20067;-43
2022/05/18 03:52:06;;;;;;;11.32;8.02;;;;;;;13.54;100.00;96980.13;5063833;28;20092;-44
2022/05/18 03:54:36;;;;;;;12.25;7.30;;;;;;;13.58;100.00;96977.19;5065387;28;20080;-51
2022/05/18 03:57:09;;;;;;;8.48;7.45;;;;;;;14.30;100.00;96972.66;5065347;28;20428;-51
2022/05/18 03:59:40;;;;;;;8.73;7.43;;;;;;;14.96;100.00;96975.53;5064600;28;20296;-49
2022/05/18 04:02:08;;;;;;;9.00;7.03;;;;;;;15.17;100.00;96969.84;5060704;28;20064;-47
2022/05/18 04:04:37;;;;;;;8.73;7.68;;;;;;;16.15;100.00;96963.88;5065881;28;20502;-48
2022/05/18 04:07:06;;;;;;;11.00;8.88;;;;;;;16.74;100.00;96956.47;5060021;28;20087;-45
2022/05/18 04:09:35;;;;;;;10.05;8.77;;;;;;;17.41;100.00;96966.72;5063350;28;20470;-46
2022/05/18 04:12:04;;;;;;;10.98;9.70;;;;;;;17.28;100.00;96964.59;5061245;28;20061;-49
2022/05/18 04:14:32;;;;;;;11.40;9.95;;;;;;;17.88;100.00;96970.25;5067094;28;20080;-49
2022/05/18 04:17:00;;;;;;;9.43;8.38;;;;;;;17.86;100.00;96974.94;5066296;28;20056;-49
2022/05/18 04:19:29;;;;;;;10.13;8.10;;;;;;;17.43;100.00;96970.00;5065928;28;20071;-46
2022/05/18 04:21:57;;;;;;;11.57;8.23;;;;;;;17.16;100.00;96971.31;5066557;28;20087;-45
2022/05/18 04:24:27;;;;;;;11.90;8.30;;;;;;;18.01;100.00;96974.00;5064842;28;20041;-51
2022/05/18 04:26:57;;;;;;;10.90;9.13;;;;;;;17.81;100.00;96980.81;5065774;28;20151;-45
2022/05/18 04:29:25;;;;;;;18.88;9.27;;;;;;;18.10;100.00;96984.59;5062824;28;20056;-46
2022/05/18 04:31:53;;;;;;;10.50;9.32;;;;;;;18.83;100.00;96986.66;5060409;28;20072;-44
2022/05/18 04:34:22;;;;;;;10.95;9.75;;;;;;;19.54;100.00;96986.94;5064451;28;20071;-46
2022/05/18 04:36:50;;;;;;;11.25;9.88;;;;;;;19.60;100.00;96993.38;5060533;28;20080;-49
2022/05/18 04:39:18;;;;;;;11.45;10.27;;;;;;;19.59;100.00;97005.13;5066978;28;20083;-47
2022/05/18 04:41:48;;;;;;;11.25;9.70;;;;;;;19.15;100.00;97014.00;5067303;28;20072;-51
2022/05/18 04:44:17;;;;;;;11.93;10.75;;;;;;;19.43;100.00;97011.50;5067309;28;20057;-45
2022/05/18 04:46:45;;;;;;;14.65;10.55;;;;;;;19.20;100.00;97022.28;5067880;28;20526;-52
2022/05/18 04:49:14;;;;;;;11.38;10.18;;;;;;;19.73;100.00;97024.88;5067375;28;20059;-53
2022/05/18 04:51:42;;;;;;;14.85;11.30;;;;;;;20.04;100.00;97025.41;5071490;28;20091;-50
2022/05/18 04:54:11;;;;;;;13.48;10.82;;;;;;;20.44;100.00;97033.84;5067657;28;20706;-44
2022/05/18 04:56:39;;;;;;;12.43;11.05;;;;;;;20.15;100.00;97040.13;5071431;28;20068;-46
2022/05/18 04:59:09;;;;;;;13.00;11.40;;;;;;;19.71;100.00;97045.63;5068343;28;20076;-46
2022/05/18 05:01:37;;;;;;;12.00;10.80;;;;;;;19.98;100.00;97039.56;5071242;28;20523;-50
2022/05/18 05:04:09;;;;;;;12.30;10.85;;;;;;;20.04;100.00;97038.78;5070329;28;20123;-48
2022/05/18 05:06:38;;;;;;;11.93;10.63;;;;;;;19.48;100.00;97030.50;5071878;28;20095;-51
2022/05/18 05:09:06;;;;;;;13.73;10.85;;;;;;;19.78;100.00;97031.28;5072011;28;20553;-45
2022/05/18 05:11:34;;;;;;;13.00;11.07;;;;;;;19.86;100.00;97038.41;5070939;28;20546;-49
2022/05/18 05:14:03;;;;;;;13.10;10.77;;;;;;;19.93;100.00;97039.31;5071198;28;20116;-50
2022/05/18 05:16:34;;;;;;;12.02;10.82;;;;;;;20.29;100.00;97039.25;5071742;28;20127;-50
2022/05/18 05:19:02;;;;;;;14.02;11.85;;;;;;;19.88;100.00;97047.06;5070358;28;20637;-48
2022/05/18 05:21:31;;;;;;;13.73;11.18;;;;;;;20.14;100.00;97043.84;5071083;28;20092;-49
2022/05/18 05:23:59;;;;;;;14.38;10.98;;;;;;;20.34;100.00;97046.72;5070443;28;20068;-45
2022/05/18 05:26:27;;;;;;;12.93;11.70;;;;;;;20.36;100.00;97050.03;5070058;28;20524;-47
2022/05/18 05:28:55;;;;;;;14.20;10.93;;;;;;;20.03;100.00;97053.22;5071186;28;20071;-45
2022/05/18 05:31:24;;;;;;;13.57;12.18;;;;;;;19.39;100.00;97061.03;5070900;28;20056;-50
2022/05/18 05:33:53;;;;;;;16.33;11.63;;;;;;;19.54;100.00;97058.34;5070922;28;20084;-48
2022/05/18 05:36:22;;;;;;;12.52;11.32;;;;;;;18.82;100.00;97057.13;5069915;28;20127;-49
2022/05/18 05:38:50;;;;;;;14.93;11.80;;;;;;;18.88;100.00;97055.56;5070641;28;20056;-49
2022/05/18 05:41:19;;;;;;;14.35;11.65;;;;;;;18.89;100.00;97057.22;5070256;28;20060;-50
2022/05/18 05:43:47;;;;;;;13.07;11.73;;;;;;;18.74;100.00;97050.00;5070308;28;20075;-45
2022/05/18 05:46:16;;;;;;;16.00;11.45;;;;;;;18.61;100.00;97055.09;5070638;28;20068;-47
2022/05/18 05:48:46;;;;;;;13.40;11.48;;;;;;;18.31;100.00;97053.38;5071151;28;20079;-44
2022/05/18 05:51:18;;;;;;;14.52;11.90;;;;;;;18.31;100.00;97048.03;5070785;28;20041;-47
2022/05/18 05:53:47;;;;;;;13.90;12.40;;;;;;;18.31;100.00;97053.38;5070495;28;20060;-44
2022/05/18 05:56:16;;;;;;;16.45;12.45;;;;;;;18.21;100.00;97053.59;5070339;28;20064;-50
2022/05/18 05:58:47;;;;;;;15.25;13.30;;;;;;;18.71;100.00;97045.03;5069735;28;20064;-48
2022/05/18 06:01:17;;;;;;;14.25;12.32;;;;;;;18.40;100.00;97049.63;5069596;28;20064;-44
2022/05/18 06:03:46;;;;;;;14.45;12.63;;;;;;;18.62;100.00;97056.78;5070221;28;20094;-46
2022/05/18 06:06:19;;;;;;;14.82;13.18;;;;;;;18.40;100.00;97052.28;5070848;28;20092;-47
2022/05/18 06:08:47;;;;;;;16.90;13.95;;;;;;;18.05;100.00;97062.56;5063547;28;20079;-44
2022/05/18 06:11:15;;;;;;;15.07;13.23;;;;;;;18.28;100.00;97065.25;5063979;28;20068;-46
2022/05/18 06:13:43;;;;;;;16.77;13.38;;;;;;;18.65;100.00;97061.78;5063250;28;20067;-47
2022/05/18 06:16:29;;;;;;;17.85;13.98;;;;;;;18.71;100.00;97076.22;5067593;28;20064;-50
2022/05/18 06:18:59;;;;;;;16.05;13.63;;;;;;;19.27;100.00;97082.06;5066644;28;20083;-46
2022/05/18 06:21:29;;;;;;;14.85;13.23;;;;;;;19.06;100.00;97080.09;5069824;28;20582;-48
2022/05/18 06:23:57;;;;;;;17.02;14.07;;;;;;;18.51;100.00;97081.22;5069833;28;20076;-45
2022/05/18 06:26:26;;;;;;;16.42;14.43;;;;;;;18.83;100.00;97082.84;5069746;28;20067;-47
2022/05/18 06:28:54;;;;;;;17.10;14.10;;;;;;;19.02;100.00;97084.16;5069434;28;20076;-44
2022/05/18 06:31:23;;;;;;;17.50;13.98;;;;;;;19.25;100.00;97078.75;5069619;28;20071;-50
2022/05/18 06:33:51;;;;;;;16.58;13.50;;;;;;;19.17;100.00;97073.50;5069509;28;20084;-51
2022/05/18 06:36:19;;;;;;;16.17;13.88;;;;;;;19.35;100.00;97071.28;5070348;28;20471;-50
2022/05/18 06:38:49;;;;;;;17.30;14.10;;;;;;;19.27;100.00;97065.19;5069433;28;20480;-49
2022/05/18 06:41:23;;;;;;;15.77;13.93;;;;;;;19.52;100.00;97071.09;5069395;28;20114;-46
2022/05/18 06:43:54;;;;;;;15.60;13.15;;;;;;;19.74;100.00;97072.84;5069375;28;20064;-44
2022/05/18 06:46:23;;;;;;;16.40;13.18;;;;;;;19.68;100.00;97079.78;5069100;28;20564;-51
2022/05/18 06:48:51;;;;;;;15.32;12.90;;;;;;;20.05;100.00;97079.78;5069447;28;20126;-47
2022/05/18 06:51:21;;;;;;;17.05;13.27;;;;;;;20.28;100.00;97087.66;5069796;28;20095;-44
2022/05/18 06:53:52;;;;;;;18.42;11.77;;;;;;;20.81;100.00;97080.97;5069358;28;20471;-46
2022/05/18 06:56:21;;;;;;;15.13;12.45;;;;;;;20.46;100.00;97085.34;5068652;28;20565;-44
2022/05/18 06:58:50;;;;;;;13.63;12.10;;;;;;;20.53;100.00;97083.59;5068792;28;20091;-46
2022/05/18 07:01:18;;;;;;;14.45;12.43;;;;;;;20.68;100.00;97080.88;5063481;28;20082;-47
2022/05/18 07:03:48;;;;;;;14.73;11.88;;;;;;;20.38;100.00;97088.19;5068573;28;20072;-55
2022/05/18 07:06:18;;;;;;;13.60;11.93;;;;;;;20.75;100.00;97088.94;5063649;28;20079;-50
2022/05/18 07:08:46;;;;;;;16.40;11.80;;;;;;;21.38;100.00;97081.81;5068903;28;20067;-53
2022/05/18 07:11:17;;;;;;;14.82;12.10;;;;;;;21.82;100.00;97088.66;5068693;28;20068;-52
2022/05/18 07:13:51;;;;;;;15.80;12.23;;;;;;;20.89;100.00;97092.56;5068185;28;20060;-48
2022/05/18 07:16:19;;;;;;;14.70;11.40;;;;;;;21.37;100.00;97088.22;5073396;28;20064;-48
2022/05/18 07:18:48;;;;;;;12.98;11.23;;;;;;;20.82;100.00;97096.03;5068808;28;20084;-48
2022/05/18 07:21:17;;;;;;;14.57;11.55;;;;;;;20.65;100.00;97101.84;5069153;28;20088;-50
2022/05/18 07:23:45;;;;;;;15.45;12.20;;;;;;;21.16;100.00;97094.41;5071145;28;20068;-49
2022/05/18 07:26:14;;;;;;;13.20;11.85;;;;;;;21.95;100.00;97094.03;5069096;28;20064;-49
2022/05/18 07:28:44;;;;;;;14.43;11.98;;;;;;;21.95;100.00;97088.66;5068708;28;20067;-46
2022/05/18 07:31:13;;;;;;;13.50;12.07;;;;;;;22.55;100.00;97086.19;5068970;28;20060;-49
2022/05/18 07:34:01;;;;;;;13.98;12.13;;;;;;;22.28;100.00;97088.00;5068193;28;20525;-48
2022/05/18 07:36:29;;;;;;;13.07;11.65;;;;;;;22.30;100.00;97082.41;5069244;28;20095;-52
2022/05/18 07:39:01;;;;;;;14.27;11.60;;;;;;;22.77;100.00;97076.06;5069020;28;20447;-52
2022/05/18 07:41:31;;;;;;;12.63;11.20;;;;;;;23.37;100.00;97070.66;5062258;28;20072;-46
2022/05/18 07:44:01;;;;;;;14.55;12.10;;;;;;;22.95;100.00;97073.63;5061502;28;20060;-51
2022/05/18 07:46:30;;;;;;;14.90;12.50;;;;;;;22.64;100.00;97074.22;5068467;28;20064;-48
2022/05/18 07:49:00;;;;;;;14.35;12.82;;;;;;;22.20;100.00;97080.94;5067946;28;20113;-49
2022/05/18 07:51:31;;;;;;;13.30;12.00;;;;;;;22.61;100.00;97077.31;5068394;28;20063;-47
2022/05/18 07:54:00;;;;;;;16.42;11.65;;;;;;;22.64;100.00;97070.66;5067625;28;20065;-50
2022/05/18 07:56:31;;;;;;;16.73;11.98;;;;;;;22.39;100.00;97065.88;5068088;28;20071;-50
2022/05/18 07:59:01;;;;;;;;;;;;;;;22.89;100.00;97071.72;5068695;28;20070;-46
2022/05/18 08:01:32;;;;;;;15.43;12.45;;;;;;;23.17;100.00;97070.69;5067638;28;19960;-49
2022/05/18 08:04:02;;;;;;;12.35;10.55;;;;;;;23.83;100.00;97078.63;5068056;28;20550;-51
2022/05/18 08:06:34;;;;;;;13.88;11.90;;;;;;;23.62;100.00;97074.31;5068372;28;20084;-46
2022/05/18 08:09:05;;;;;;;13.27;11.93;;;;;;;24.57;100.00;97079.91;5067580;28;20552;-45
2022/05/18 08:17:17;;;;;;;14.38;10.70;;;;;;;23.71;100.00;97082.19;5063989;28;20072;-49
2022/05/18 08:19:48;;;;;;;11.38;10.27;;;;;;;24.38;100.00;97088.91;5067614;28;20060;-48
2022/05/18 08:22:18;;;;;;;14.73;11.20;;;;;;;24.09;100.00;97091.16;5068162;28;20064;-47
2022/05/18 08:24:50;;;;;;;14.70;11.43;;;;;;;24.09;100.00;97085.75;5068108;28;20202;-50
2022/05/18 08:27:20;;;;;;;16.80;12.65;;;;;;;23.93;100.00;97089.75;5071324;28;20088;-49
2022/05/18 08:29:57;;;;;;;13.75;12.27;;;;;;;24.23;100.00;97089.22;5071142;28;20214;-45
2022/05/18 08:32:27;;;;;;;12.98;11.55;;;;;;;23.86;100.00;97090.84;5065472;28;20083;-48
2022/05/18 08:34:56;;;;;;;;;;;;;;;23.60;100.00;97092.53;5070103;28;20065;-46
2022/05/18 08:37:27;;;;;;;13.98;11.23;;;;;;;23.87;100.00;97093.31;5071790;28;19954;-46
2022/05/18 08:39:58;;;;;;;15.73;12.10;;;;;;;23.54;100.00;97088.00;5071400;28;20076;-44
2022/05/18 08:42:27;;;;;;;15.00;12.32;;;;;;;23.49;100.00;97085.13;5072292;28;20083;-46
2022/05/18 08:44:59;;;;;;;13.48;11.07;;;;;;;23.83;100.00;97085.88;5071830;28;20549;-51
2022/05/18 08:47:38;;;;;;;17.48;12.48;;;;;;;23.14;100.00;97085.38;5071170;28;20102;-48
2022/05/18 08:50:16;;;;;;;13.48;12.18;;;;;;;23.71;100.00;97088.41;5071134;28;20085;-45
2022/05/18 08:53:05;;;;;;;17.98;12.18;;;;;;;23.56;100.00;97087.78;5071185;28;20470;-51
2022/05/18 08:55:55;;;;;;;13.90;12.20;;;;;;;23.73;100.00;97089.00;5067051;28;20466;-48
2022/05/18 08:58:35;;;;;;;14.77;11.75;;;;;;;23.89;100.00;97085.84;5069856;28;20068;-51
2022/05/18 09:01:12;;;;;;;13.68;12.10;;;;;;;23.66;100.00;97082.78;5070558;28;20080;-47
2022/05/18 09:03:44;;;;;;;11.35;10.13;;;;;;;23.58;100.00;97074.97;5071507;28;20087;-51
2022/05/18 09:06:30;;;;;;;12.32;11.02;;;;;;;23.78;100.00;97074.91;5065954;28;20471;-49
2022/05/18 09:11:54;;;;;;;10.10;9.02;;;;;;;23.88;100.00;97078.81;5070662;28;20079;-50
2022/05/18 09:14:27;;;;;;;12.73;10.20;;;;;;;24.04;100.00;97074.78;5071232;28;20059;-50
2022/05/18 09:17:05;;;;;;;13.88;10.00;;;;;;;24.25;100.00;97078.22;5070672;28;20064;-48
2022/05/18 09:19:40;;;;;;;10.82;9.73;;;;;;;24.31;100.00;97069.25;5070909;28;20456;-46
2022/05/18 09:22:21;;;;;;;11.00;9.20;;;;;;;24.66;100.00;97077.75;5073606;28;20056;-52
2022/05/18 09:25:01;;;;;;;10.93;8.80;;;;;;;24.07;100.00;97071.66;5073284;28;20527;-47
2022/05/18 09:27:42;;;;;;;10.88;9.25;;;;;;;24.46;100.00;97077.06;5071300;28;20084;-53
2022/05/18 09:30:17;;;;;;;11.15;9.60;;;;;;;24.66;100.00;97077.75;5070106;28;20435;-49
2022/05/18 09:33:13;;;;;;;10.98;8.73;;;;;;;24.06;100.00;97082.69;5070828;28;20685;-47
2022/05/18 09:36:12;;;;;;;11.38;8.25;;;;;;;24.59;100.00;97083.19;5062518;28;20068;-52
2022/05/18 09:38:50;;;;;;;10.48;6.95;;;;;;;24.58;100.00;97078.88;5070927;28;20071;-48
2022/05/18 09:41:23;;;;;;;8.18;7.03;;;;;;;24.58;100.00;97083.44;5070326;28;20056;-45
2022/05/18 09:44:06;;;;;;;9.55;7.18;;;;;;;24.43;100.00;97081.03;5070311;28;20513;-48
2022/05/18 09:46:39;;;;;;;7.85;7.00;;;;;;;24.81;100.00;97080.97;5067975;28;21266;-50
2022/05/18 09:49:14;;;;;;;10.73;7.68;;;;;;;24.41;100.00;97077.72;5069710;28;20481;-47
2022/05/18 09:51:45;;;;;;;8.00;7.20;;;;;;;24.63;100.00;97079.03;5070631;28;20084;-54
2022/05/18 09:54:15;;;;;;;13.68;8.98;;;;;;;24.75;100.00;97081.03;5070769;28;20056;-45
2022/05/18 09:56:48;;;;;;;8.55;7.53;;;;;;;25.07;100.00;97074.53;5070230;28;20511;-48
2022/05/18 09:59:21;;;;;;;8.73;7.70;;;;;;;24.91;100.00;97074.25;5069497;28;20061;-52
2022/05/18 10:07:34;;;;;;;8.23;7.43;;;;;;;25.36;100.00;97066.78;5069515;28;20064;-46
2022/05/18 10:10:12;;;;;;;10.65;6.75;;;;;;;25.35;100.00;97067.84;5063367;28;20091;-49
2022/05/18 10:12:46;;;;;;;9.48;7.40;;;;;;;25.20;100.00;97072.78;5070605;28;20083;-48
2022/05/18 10:15:31;;;;;;;10.23;6.80;;;;;;;25.26;100.00;97067.34;5070154;28;20068;-49
2022/05/18 10:18:21;;;;;;;8.55;6.80;;;;;;;25.12;100.00;97063.09;5069832;28;20076;-48
2022/05/18 10:21:12;;;;;;;8.75;6.10;;;;;;;25.21;100.00;97075.25;5069242;28;20076;-47
2022/05/18 10:24:01;;;;;;;7.55;6.03;;;;;;;25.35;100.00;97067.84;5070038;28;20076;-45
2022/05/18 10:26:34;;;;;;;7.00;5.55;;;;;;;25.26;99.89;97072.72;5068464;28;20071;-46
2022/05/18 10:29:07;;;;;;;8.65;6.25;;;;;;;25.03;100.00;97065.22;5069716;28;20076;-53
2022/05/18 10:31:40;;;;;;;8.45;6.30;;;;;;;25.41;100.00;97066.13;5067149;28;20065;-47
2022/05/18 10:34:26;;;;;;;8.40;6.10;;;;;;;25.33;97.59;97062.69;5069647;28;20067;-49
2022/05/18 10:37:00;;;;;;;7.32;4.78;;;;;;;25.44;85.46;97063.81;5068240;28;20091;-46
2022/05/18 10:39:38;;;;;;;6.47;5.10;;;;;;;25.17;97.44;97065.13;5069877;28;20076;-49
2022/05/18 10:42:23;;;;;;;6.28;4.90;;;;;;;25.90;90.24;97065.16;5068737;28;20076;-47
2022/05/18 10:44:55;;;;;;;9.50;5.47;;;;;;;25.48;90.13;97056.91;5065542;28;20630;-51
2022/05/18 10:47:30;;;;;;;7.03;5.15;;;;;;;26.04;78.19;97055.00;5068504;28;20464;-49
2022/05/18 10:50:28;;;;;;;7.50;4.97;;;;;;;26.16;83.08;97055.91;5068926;28;20424;-47
2022/05/18 10:53:00;;;;;;;6.65;4.40;;;;;;;26.36;81.30;97057.47;5006417;28;20075;-50
2022/05/18 10:55:30;;;;;;;8.05;4.38;;;;;;;26.46;81.61;97052.34;5068921;28;20068;-46
2022/05/18 10:58:03;;;;;;;7.10;5.00;;;;;;;26.28;79.13;97062.16;5068985;28;20083;-50
2022/05/18 11:00:40;;;;;;;6.60;4.63;;;;;;;26.57;74.86;97057.00;5069129;28;20079;-46
2022/05/18 11:03:15;;;;;;;6.03;4.50;;;;;;;26.44;84.14;97055.28;5069087;28;20091;-46
2022/05/18 11:05:46;;;;;;;5.93;4.60;;;;;;;26.02;77.47;97059.84;5068976;28;20068;-48
2022/05/18 11:08:18;;;;;;;6.18;4.47;;;;;;;25.53;84.10;97054.38;5069397;28;20071;-52
2022/05/18 11:10:50;;;;;;;5.25;4.00;;;;;;;25.61;72.60;97050.53;5061717;28;20063;-46
2022/05/18 11:13:22;;;;;;;6.97;3.72;;;;;;;25.88;64.99;97055.63;5063085;28;20036;-49
2022/05/18 11:15:58;;;;;;;5.10;3.30;;;;;;;26.20;55.89;97043.56;5063194;28;20080;-46
2022/05/18 11:18:32;;;;;;;5.85;3.30;;;;;;;25.92;60.51;97043.34;5069257;28;20091;-51
2022/05/18 11:21:07;;;;;;;6.95;3.45;;;;;;;26.03;57.42;97043.38;5068613;28;20076;-46
2022/05/18 11:23:43;;;;;;;6.20;4.03;;;;;;;26.39;57.59;97041.63;5068887;28;20523;-47
2022/05/18 11:26:20;;;;;;;5.47;3.90;;;;;;;25.90;78.32;97043.56;5071604;28;20071;-50
2022/05/18 11:29:25;;;;;;;5.55;4.20;;;;;;;25.56;77.48;97036.88;5068448;28;20072;-50
2022/05/18 11:32:05;;;;;;;4.10;3.65;;;;;;;26.03;65.73;97035.28;5066488;28;20083;-54
2022/05/18 11:34:38;;;;;;;7.40;4.00;;;;;;;25.72;83.10;97030.88;5070910;28;20068;-47
2022/05/18 11:37:31;;;;;;;5.80;4.40;;;;;;;26.45;93.17;97019.06;5061975;28;20075;-50
2022/05/18 11:40:04;;;;;;;6.40;4.55;;;;;;;26.50;81.11;97023.81;5046367;28;20083;-45
2022/05/18 11:42:41;;;;;;;7.35;5.07;;;;;;;26.08;86.57;97029.16;5069005;28;20605;-52
2022/05/18 11:45:18;;;;;;;7.38;4.57;;;;;;;26.24;95.04;97028.53;5068413;28;20079;-52
2022/05/18 11:48:11;;;;;;;10.10;5.07;;;;;;;26.24;100.00;97025.81;5062329;28;20075;-48
2022/05/18 11:50:50;;;;;;;4.72;4.22;;;;;;;25.94;85.92;97020.41;5063356;28;20542;-49
2022/05/18 11:53:28;;;;;;;7.40;4.40;;;;;;;26.05;79.84;97021.53;5068031;28;20083;-50
2022/05/18 11:56:07;;;;;;;5.30;4.72;;;;;;;26.02;79.51;97017.41;5061667;28;20567;-52
2022/05/18 11:58:49;;;;;;;6.43;3.83;;;;;;;26.23;83.07;97016.06;5067516;28;20514;-45